Time;durP1;ratioP1;P1;durP2;ratioP2;P2;SDS_P1;SDS_P2;PMS_P1;PMS_P2;Temp;Humidity;BMP_temperature;BMP_pressure;BME280_temperature;BME280_humidity;BME280_pressure;Samples;Min_cycle;Max_cycle;Signal;HPM_P1;HPM_P2
2023/08/08 00:01:17;;;;;;;1.27;1.13;;;;;;;17.95;97.50;95039.34;4916776;28;20233;-71
2023/08/08 00:03:43;;;;;;;1.30;1.20;;;;;;;18.01;96.37;95046.31;4927304;28;20283;-69
2023/08/08 00:06:09;;;;;;;1.40;1.30;;;;;;;17.91;94.47;95044.28;4934973;28;20232;-70
2023/08/08 00:08:34;;;;;;;1.57;1.40;;;;;;;17.91;94.62;95054.91;4960367;28;20294;-70
2023/08/08 00:11:00;;;;;;;1.33;1.23;;;;;;;17.97;94.21;95043.34;4934772;28;20240;-70
2023/08/08 00:13:25;;;;;;;1.43;1.30;;;;;;;17.93;94.63;95049.38;4927364;28;20240;-71
2023/08/08 00:15:51;;;;;;;1.23;1.13;;;;;;;17.68;93.48;95043.66;4937775;28;20255;-69
2023/08/08 00:18:16;;;;;;;2.60;1.40;;;;;;;17.61;94.11;95040.38;4933524;28;20305;-68
2023/08/08 00:20:41;;;;;;;1.40;1.20;;;;;;;17.58;93.43;95038.22;4922420;28;21148;-71
2023/08/08 00:23:07;;;;;;;1.50;1.20;;;;;;;17.50;93.36;95044.66;4934270;28;20290;-70
2023/08/08 00:25:33;;;;;;;2.33;1.30;;;;;;;17.52;94.36;95047.09;4956209;28;20240;-69
2023/08/08 00:27:59;;;;;;;2.13;1.20;;;;;;;17.67;92.84;95034.94;4943810;28;20233;-70
2023/08/08 00:30:24;;;;;;;2.00;1.40;;;;;;;17.64;93.77;95043.34;4938844;28;20811;-69
2023/08/08 00:32:50;;;;;;;1.50;1.40;;;;;;;17.69;91.64;95054.03;4928475;28;20655;-71
2023/08/08 00:35:15;;;;;;;1.80;1.50;;;;;;;17.66;92.49;95054.50;4937200;28;20233;-70
2023/08/08 00:37:41;;;;;;;1.40;1.30;;;;;;;17.52;92.24;95060.34;4935132;28;20240;-67
2023/08/08 00:40:07;;;;;;;1.53;1.40;;;;;;;17.55;92.16;95060.69;4951792;28;20236;-68
2023/08/08 00:42:32;;;;;;;2.20;1.40;;;;;;;17.45;91.47;95055.16;4923965;28;20838;-68
2023/08/08 00:45:03;;;;;;;1.40;1.30;;;;;;;17.34;91.25;95046.25;4933189;28;20244;-67
2023/08/08 00:47:29;;;;;;;1.60;1.50;;;;;;;17.37;91.33;95056.34;4935202;28;21071;-70
2023/08/08 00:49:55;;;;;;;4.90;1.50;;;;;;;17.36;90.61;95067.97;4939139;28;20232;-69
2023/08/08 00:52:20;;;;;;;2.00;1.57;;;;;;;17.34;90.66;95078.00;4943390;28;20240;-68
2023/08/08 00:54:46;;;;;;;2.30;1.40;;;;;;;17.26;91.27;95078.38;4937475;28;20232;-69
2023/08/08 00:57:12;;;;;;;3.10;1.50;;;;;;;17.24;92.65;95075.16;4920624;28;20244;-68
2023/08/08 00:59:37;;;;;;;1.60;1.40;;;;;;;17.36;91.19;95075.91;4917033;28;20324;-70
2023/08/08 01:02:03;;;;;;;1.73;1.40;;;;;;;17.34;91.11;95078.00;4935811;28;20267;-65
2023/08/08 01:04:29;;;;;;;1.57;1.40;;;;;;;17.33;90.36;95076.41;4928728;28;20239;-69
2023/08/08 01:06:57;;;;;;;1.50;1.40;;;;;;;17.38;90.00;95078.34;4952927;28;20240;-69
2023/08/08 01:09:58;;;;;;;1.80;1.30;;;;;;;17.31;90.30;95080.31;4938383;28;20233;-69
2023/08/08 01:12:24;;;;;;;1.50;1.40;;;;;;;17.27;90.61;95090.56;4941463;28;20261;-69
2023/08/08 01:14:49;;;;;;;1.40;1.30;;;;;;;17.36;89.61;95093.66;4922753;28;20370;-69
2023/08/08 01:17:15;;;;;;;4.07;1.40;;;;;;;17.16;90.95;95083.47;4920578;29;20404;-68
2023/08/08 01:19:40;;;;;;;2.17;1.50;;;;;;;17.01;90.90;95087.66;4981326;28;20239;-70
2023/08/08 01:22:08;;;;;;;1.43;1.33;;;;;;;17.18;90.33;95083.22;4912452;29;20240;-70
2023/08/08 01:24:36;;;;;;;1.80;1.67;;;;;;;17.20;90.43;95089.09;4933617;29;20238;-69
2023/08/08 01:27:02;;;;;;;1.90;1.50;;;;;;;17.19;90.19;95090.97;4973227;28;20235;-69
2023/08/08 01:29:28;;;;;;;1.90;1.47;;;;;;;17.20;90.50;95097.84;4988241;28;20233;-69
2023/08/08 01:31:54;;;;;;;1.87;1.60;;;;;;;17.01;91.49;95085.81;4909243;29;20280;-70
2023/08/08 01:34:19;;;;;;;2.20;1.50;;;;;;;16.98;91.18;95088.94;4979155;28;20630;-69
2023/08/08 01:37:07;;;;;;;1.70;1.40;;;;;;;17.10;90.20;95095.00;4925701;28;20263;-70
2023/08/08 01:39:33;;;;;;;2.07;1.50;;;;;;;17.06;90.30;95096.50;4943354;28;20236;-69
2023/08/08 01:41:59;;;;;;;2.20;1.50;;;;;;;17.14;90.16;95098.78;4925293;28;20239;-69
2023/08/08 01:44:25;;;;;;;1.97;1.50;;;;;;;17.03;90.80;95107.53;4919222;28;20236;-69
2023/08/08 01:46:51;;;;;;;1.87;1.60;;;;;;;16.91;91.47;95119.22;4932130;28;20839;-69
2023/08/08 01:49:16;;;;;;;2.77;1.40;;;;;;;16.93;91.46;95123.22;4936371;28;20232;-70
2023/08/08 01:51:41;;;;;;;2.37;1.57;;;;;;;16.85;91.40;95123.59;4927153;28;20244;-69
2023/08/08 01:54:07;;;;;;;1.60;1.50;;;;;;;16.90;91.29;95121.03;4934819;28;20301;-69
2023/08/08 01:56:33;;;;;;;2.33;1.50;;;;;;;16.72;91.81;95121.97;4939879;28;20232;-68
2023/08/08 01:58:58;;;;;;;1.57;1.40;;;;;;;16.71;92.32;95130.97;4967001;28;20342;-71
2023/08/08 02:01:24;;;;;;;2.87;1.80;;;;;;;16.88;92.09;95140.81;4917910;28;20241;-69
2023/08/08 02:03:49;;;;;;;1.70;1.60;;;;;;;16.84;92.28;95143.09;4929479;28;20324;-69
2023/08/08 02:06:15;;;;;;;1.90;1.60;;;;;;;16.91;91.20;95135.84;4936496;28;20237;-70
2023/08/08 02:08:40;;;;;;;1.90;1.50;;;;;;;16.88;91.24;95140.81;4920524;28;20259;-69
2023/08/08 02:11:06;;;;;;;3.97;1.70;;;;;;;16.82;91.80;95142.53;4932842;28;20240;-69
2023/08/08 02:13:31;;;;;;;3.53;1.67;;;;;;;16.72;92.29;95147.59;4950564;28;20287;-69
2023/08/08 02:15:57;;;;;;;2.63;1.60;;;;;;;16.83;91.85;95144.16;4935889;28;20859;-69
2023/08/08 02:18:22;;;;;;;1.90;1.60;;;;;;;16.78;92.01;95144.06;4936156;28;20237;-68
2023/08/08 02:20:48;;;;;;;4.20;1.50;;;;;;;16.75;92.93;95149.78;4932482;28;20237;-70
2023/08/08 02:23:13;;;;;;;3.90;1.70;;;;;;;16.71;92.78;95159.22;4935176;28;20232;-68
2023/08/08 02:25:39;;;;;;;1.60;1.40;;;;;;;16.89;92.13;95161.72;4936114;28;20361;-69
2023/08/08 02:28:05;;;;;;;3.37;1.70;;;;;;;16.71;92.40;95169.81;4931277;28;20240;-78
2023/08/08 02:30:30;;;;;;;1.97;1.60;;;;;;;16.75;92.17;95170.94;4945761;28;20237;-76
2023/08/08 02:32:56;;;;;;;1.80;1.60;;;;;;;16.71;92.70;95177.75;4925849;28;20258;-77
2023/08/08 02:35:21;;;;;;;2.57;1.70;;;;;;;16.84;92.20;95161.63;4948248;28;21137;-78
2023/08/08 02:37:47;;;;;;;2.63;1.60;;;;;;;16.83;91.77;95167.97;4949970;28;20228;-77
2023/08/08 02:40:12;;;;;;;2.57;1.70;;;;;;;16.96;91.02;95166.88;4951279;28;20240;-76
2023/08/08 02:42:38;;;;;;;3.10;1.60;;;;;;;16.76;91.75;95175.22;4935105;28;20250;-79
2023/08/08 02:45:04;;;;;;;3.00;1.90;;;;;;;16.81;91.94;95172.69;4951246;28;20421;-77
2023/08/08 02:47:29;;;;;;;1.70;1.60;;;;;;;16.86;91.83;95180.69;4935706;28;20243;-78
2023/08/08 02:49:55;;;;;;;1.83;1.73;;;;;;;16.98;91.21;95191.28;4938634;28;20334;-77
2023/08/08 02:52:20;;;;;;;2.17;1.80;;;;;;;16.95;91.98;95189.09;4915534;28;20908;-77
2023/08/08 02:54:46;;;;;;;2.10;1.90;;;;;;;16.98;92.02;95193.94;4932531;28;20240;-70
2023/08/08 02:57:12;;;;;;;2.93;1.90;;;;;;;16.87;91.59;95189.44;4924449;28;20229;-68
2023/08/08 02:59:37;;;;;;;1.77;1.67;;;;;;;17.04;91.48;95192.97;4918226;28;20298;-69
2023/08/08 03:02:03;;;;;;;3.07;1.83;;;;;;;16.87;92.55;95202.66;4924276;28;20458;-70
2023/08/08 03:04:30;;;;;;;2.40;2.00;;;;;;;16.80;91.86;95200.13;4933216;28;20238;-70
2023/08/08 03:06:55;;;;;;;4.10;2.00;;;;;;;16.77;92.53;95193.47;4928618;28;20229;-68
2023/08/08 03:09:21;;;;;;;5.10;2.00;;;;;;;16.73;92.62;95188.88;4932516;28;20233;-67
2023/08/08 03:11:46;;;;;;;2.20;2.00;;;;;;;16.77;92.92;95188.19;4936647;28;20228;-70
2023/08/08 03:14:12;;;;;;;2.10;1.90;;;;;;;16.55;92.91;95181.06;4960183;28;20244;-69
2023/08/08 03:16:37;;;;;;;3.30;1.97;;;;;;;16.57;93.86;95194.88;4927810;28;20241;-70
2023/08/08 03:19:02;;;;;;;2.93;2.20;;;;;;;16.72;92.52;95200.47;4938785;28;20233;-68
2023/08/08 03:21:29;;;;;;;2.90;2.30;;;;;;;16.76;92.49;95212.22;4928892;28;20238;-70
2023/08/08 03:23:55;;;;;;;2.40;2.20;;;;;;;16.69;92.92;95206.25;4920920;28;20241;-68
2023/08/08 03:26:20;;;;;;;3.00;2.30;;;;;;;16.62;93.00;95202.91;4951331;28;20229;-70
2023/08/08 03:28:50;;;;;;;5.07;2.30;;;;;;;16.75;92.56;95207.94;4922658;28;20240;-70
2023/08/08 03:31:16;;;;;;;2.63;2.40;;;;;;;16.84;91.63;95212.66;4951794;28;20271;-70
2023/08/08 03:33:42;;;;;;;3.43;2.30;;;;;;;16.88;92.07;95213.03;4919286;28;20350;-69
2023/08/08 03:36:08;;;;;;;2.40;2.20;;;;;;;16.83;92.77;95210.25;4935408;28;20323;-70
2023/08/08 03:38:34;;;;;;;2.43;2.23;;;;;;;16.93;91.79;95207.84;4945779;28;20232;-69
2023/08/08 03:40:59;;;;;;;3.03;2.50;;;;;;;16.99;91.27;95212.19;4950959;28;20220;-69
2023/08/08 03:43:25;;;;;;;3.23;2.63;;;;;;;16.76;92.02;95207.75;4943043;28;20245;-69
2023/08/08 03:45:50;;;;;;;3.43;2.60;;;;;;;16.85;91.92;95200.25;4951663;28;20229;-69
2023/08/08 03:48:16;;;;;;;3.30;2.50;;;;;;;16.82;91.90;95222.66;4936697;28;20232;-70
2023/08/08 03:50:41;;;;;;;2.70;2.50;;;;;;;16.84;92.08;95220.59;4934627;28;20236;-69
2023/08/08 03:53:07;;;;;;;4.40;2.70;;;;;;;16.83;91.88;95204.97;4935527;28;20244;-70
2023/08/08 03:55:33;;;;;;;5.37;2.90;;;;;;;16.79;92.08;95209.09;4945842;28;20247;-69
2023/08/08 03:57:59;;;;;;;2.83;2.60;;;;;;;16.87;90.97;95202.66;4948206;28;20843;-68
2023/08/08 04:00:24;;;;;;;3.07;2.77;;;;;;;16.90;90.35;95202.19;4947524;28;20232;-70
2023/08/08 04:02:50;;;;;;;6.47;2.70;;;;;;;16.82;91.09;95214.72;4932977;28;20320;-77
2023/08/08 04:05:15;;;;;;;3.20;2.60;;;;;;;16.74;91.04;95214.28;4958571;28;20316;-77
2023/08/08 04:07:41;;;;;;;3.20;2.67;;;;;;;16.78;91.01;95221.53;4933851;28;20328;-77
2023/08/08 04:10:07;;;;;;;5.77;3.00;;;;;;;16.81;91.08;95233.50;4966066;28;20233;-76
2023/08/08 04:12:32;;;;;;;3.50;2.90;;;;;;;16.75;91.46;95243.13;4950789;28;20236;-76
2023/08/08 04:14:58;;;;;;;4.20;3.00;;;;;;;16.76;91.27;95242.09;4948977;28;20233;-77
2023/08/08 04:17:24;;;;;;;5.17;3.23;;;;;;;16.69;91.03;95245.88;4951740;28;20244;-79
2023/08/08 04:19:50;;;;;;;4.63;3.20;;;;;;;16.68;90.80;95246.91;4950708;28;20300;-78
2023/08/08 04:22:16;;;;;;;5.00;3.17;;;;;;;16.75;91.03;95243.13;4937698;28;20336;-76
2023/08/08 04:24:41;;;;;;;4.53;3.23;;;;;;;16.91;90.91;95243.47;4959679;28;20729;-78
2023/08/08 04:27:07;;;;;;;4.37;3.07;;;;;;;17.01;90.62;95251.63;4951525;28;20232;-78
2023/08/08 04:29:32;;;;;;;3.93;3.50;;;;;;;16.79;90.71;95254.84;4937596;28;20244;-77
2023/08/08 04:31:58;;;;;;;3.77;3.37;;;;;;;16.69;90.75;95259.09;4941603;28;20252;-76
2023/08/08 04:34:23;;;;;;;3.83;3.30;;;;;;;16.54;91.56;95256.09;4921695;28;20237;-79
2023/08/08 04:36:49;;;;;;;5.20;3.20;;;;;;;16.55;91.63;95263.78;4933704;28;20607;-77
2023/08/08 04:39:15;;;;;;;4.47;3.20;;;;;;;16.55;90.80;95258.50;4948685;28;20916;-78
2023/08/08 04:41:40;;;;;;;3.87;3.37;;;;;;;16.78;90.57;95263.81;4942435;28;20263;-77
2023/08/08 04:44:05;;;;;;;4.67;3.30;;;;;;;16.72;90.31;95256.78;4953523;28;20245;-75
2023/08/08 04:46:31;;;;;;;5.13;3.40;;;;;;;16.77;89.64;95253.47;4935001;28;20358;-77
2023/08/08 04:48:56;;;;;;;4.60;3.40;;;;;;;16.79;89.73;95246.91;4950491;28;20247;-77
2023/08/08 04:51:22;;;;;;;3.60;3.30;;;;;;;16.85;89.06;95242.56;4942114;28;20706;-78
2023/08/08 04:53:47;;;;;;;6.93;3.50;;;;;;;16.96;88.50;95252.31;4934222;28;20883;-77
2023/08/08 04:56:13;;;;;;;4.07;3.23;;;;;;;16.89;89.57;95264.03;4938160;28;20286;-77
2023/08/08 04:58:38;;;;;;;4.60;3.43;;;;;;;16.97;88.84;95272.44;4940705;28;20236;-77
2023/08/08 05:01:04;;;;;;;5.27;3.50;;;;;;;17.00;88.30;95273.84;4938799;28;21220;-77
2023/08/08 05:03:30;;;;;;;5.03;3.33;;;;;;;17.11;88.23;95279.13;4926866;28;20708;-78
2023/08/08 05:05:55;;;;;;;5.27;3.60;;;;;;;17.04;88.32;95280.25;4937580;28;20330;-76
2023/08/08 05:08:21;;;;;;;5.20;3.47;;;;;;;17.00;88.44;95287.06;4949450;28;20696;-77
2023/08/08 05:10:46;;;;;;;6.03;3.57;;;;;;;16.92;88.59;95295.31;4933585;28;20628;-77
2023/08/08 05:13:12;;;;;;;4.97;3.40;;;;;;;16.97;88.79;95304.19;4952522;28;21006;-77
2023/08/08 05:15:38;;;;;;;5.10;3.50;;;;;;;16.95;88.59;95313.38;4952228;28;20319;-77
2023/08/08 05:18:04;;;;;;;5.40;3.27;;;;;;;16.96;88.65;95323.72;4947607;28;20238;-77
2023/08/08 05:20:30;;;;;;;3.73;3.33;;;;;;;16.99;88.63;95315.34;4951505;28;20260;-76
2023/08/08 05:22:55;;;;;;;4.87;3.47;;;;;;;16.97;88.04;95320.06;4938615;28;20327;-75
2023/08/08 05:25:20;;;;;;;3.50;3.20;;;;;;;17.05;88.50;95319.69;4935322;28;20305;-76
2023/08/08 05:27:46;;;;;;;5.73;3.30;;;;;;;17.63;85.91;95324.97;4953825;28;20251;-75
2023/08/08 05:30:12;;;;;;;4.83;3.40;;;;;;;17.31;85.99;95321.91;4949546;28;20224;-80
2023/08/08 05:32:37;;;;;;;4.87;3.10;;;;;;;17.09;87.38;95320.88;4939725;28;20268;-77
2023/08/08 05:35:04;;;;;;;5.40;3.10;;;;;;;17.98;83.75;95325.69;4958574;28;20307;-77
2023/08/08 05:37:30;;;;;;;5.30;3.17;;;;;;;17.76;84.31;95329.22;4949679;28;20666;-77
2023/08/08 05:39:55;;;;;;;5.10;2.90;;;;;;;18.39;81.71;95339.75;4952880;28;20232;-77
2023/08/08 05:42:21;;;;;;;3.40;2.63;;;;;;;18.07;81.87;95348.16;4927816;28;20259;-80
2023/08/08 05:44:46;;;;;;;5.43;2.80;;;;;;;18.25;82.07;95352.47;4934263;28;20287;-77
2023/08/08 05:47:12;;;;;;;5.20;2.90;;;;;;;18.30;82.07;95351.75;4950540;28;20302;-76
2023/08/08 05:49:38;;;;;;;3.90;2.97;;;;;;;17.80;82.55;95364.78;4950926;28;20609;-75
2023/08/08 05:52:04;;;;;;;3.20;2.80;;;;;;;17.60;83.45;95357.22;4953573;28;20710;-80
2023/08/08 05:54:30;;;;;;;3.53;2.93;;;;;;;17.48;83.34;95359.06;4942581;28;20232;-76
2023/08/08 05:56:56;;;;;;;4.97;2.87;;;;;;;17.73;83.02;95361.47;4935440;28;20236;-78
2023/08/08 05:59:21;;;;;;;4.87;3.20;;;;;;;17.94;82.34;95356.34;4952286;28;20836;-78
2023/08/08 06:01:47;;;;;;;3.73;3.20;;;;;;;17.96;81.97;95361.44;4928356;28;20228;-76
2023/08/08 06:04:13;;;;;;;4.07;3.00;;;;;;;17.74;81.79;95366.53;4955428;28;20252;-77
2023/08/08 06:06:39;;;;;;;3.80;3.10;;;;;;;17.53;82.75;95376.91;4943390;28;20340;-78
2023/08/08 06:09:05;;;;;;;4.10;3.13;;;;;;;17.48;83.89;95374.94;4953256;28;20241;-76
2023/08/08 06:11:30;;;;;;;4.43;3.60;;;;;;;17.29;84.37;95382.16;4943706;28;20243;-78
2023/08/08 06:13:56;;;;;;;3.60;3.30;;;;;;;17.36;84.77;95374.91;4949862;28;20274;-76
2023/08/08 06:16:22;;;;;;;3.87;3.30;;;;;;;17.43;83.43;95367.66;4951134;28;20299;-75
2023/08/08 06:18:47;;;;;;;6.33;3.70;;;;;;;17.41;83.43;95372.38;4935619;28;20301;-74
2023/08/08 06:21:13;;;;;;;4.63;3.53;;;;;;;17.32;83.75;95368.47;4942009;28;20249;-75
2023/08/08 06:23:38;;;;;;;3.83;3.43;;;;;;;17.46;82.55;95366.41;4942349;28;20252;-75
2023/08/08 06:26:04;;;;;;;6.43;3.60;;;;;;;17.59;83.20;95368.84;4942154;28;20275;-77
2023/08/08 06:28:30;;;;;;;3.43;3.00;;;;;;;17.71;81.63;95366.19;4947628;28;20236;-75
2023/08/08 06:30:56;;;;;;;4.63;3.20;;;;;;;17.86;80.99;95366.53;4950565;28;20236;-76
2023/08/08 06:33:22;;;;;;;4.83;3.40;;;;;;;17.92;80.76;95366.38;4926325;28;20241;-75
2023/08/08 06:35:47;;;;;;;3.70;3.30;;;;;;;17.81;80.32;95371.72;4927967;28;20307;-77
2023/08/08 06:38:13;;;;;;;3.77;3.00;;;;;;;17.84;80.58;95372.03;4933352;29;20849;-75
2023/08/08 06:40:38;;;;;;;3.30;3.00;;;;;;;17.92;80.59;95370.88;4976172;28;21124;-75
2023/08/08 06:43:04;;;;;;;5.20;3.13;;;;;;;17.78;80.76;95372.16;4939901;28;20681;-75
2023/08/08 06:45:30;;;;;;;5.10;3.20;;;;;;;17.84;80.78;95365.94;4948538;28;20244;-77
2023/08/08 06:47:55;;;;;;;5.37;3.13;;;;;;;17.95;81.00;95362.47;4930170;29;20238;-75
2023/08/08 06:50:20;;;;;;;5.00;3.50;;;;;;;17.86;81.39;95367.34;4947765;28;20241;-76
2023/08/08 06:52:46;;;;;;;4.70;3.30;;;;;;;17.88;81.70;95365.25;4977010;28;20225;-75
2023/08/08 06:55:11;;;;;;;3.77;3.00;;;;;;;17.84;79.67;95373.91;4953730;28;20229;-74
2023/08/08 06:57:37;;;;;;;5.30;2.90;;;;;;;17.96;79.10;95377.34;4949711;28;20241;-75
2023/08/08 07:00:06;;;;;;;3.07;2.50;;;;;;;17.92;76.87;95373.50;4937047;29;20260;-74
2023/08/08 07:02:31;;;;;;;2.70;2.50;;;;;;;17.79;75.49;95387.03;4982362;28;20230;-75
2023/08/08 07:04:57;;;;;;;3.93;2.50;;;;;;;17.82;75.68;95376.75;4950324;28;20232;-77
2023/08/08 07:07:22;;;;;;;3.20;2.40;;;;;;;17.62;73.30;95375.53;4977857;28;20667;-76
2023/08/08 07:09:49;;;;;;;2.57;2.37;;;;;;;17.78;73.47;95380.09;4937901;29;20236;-77
2023/08/08 07:12:14;;;;;;;4.97;2.30;;;;;;;17.90;72.35;95368.47;4937665;29;20233;-77
2023/08/08 07:14:40;;;;;;;3.93;2.50;;;;;;;18.08;72.84;95365.66;4932291;28;20315;-78
2023/08/08 07:17:05;;;;;;;5.53;2.80;;;;;;;18.12;72.37;95376.59;4998064;28;20244;-76
2023/08/08 07:19:31;;;;;;;4.37;2.40;;;;;;;18.16;70.96;95373.22;4979175;28;20229;-74
2023/08/08 07:21:56;;;;;;;2.60;2.40;;;;;;;17.95;72.07;95365.94;4957961;28;20243;-76
2023/08/08 07:24:26;;;;;;;4.00;2.60;;;;;;;18.16;72.25;95360.00;4999558;28;20245;-75
2023/08/08 07:26:52;;;;;;;2.80;2.47;;;;;;;18.38;71.40;95372.59;4918399;28;20620;-76
2023/08/08 07:29:17;;;;;;;2.70;2.40;;;;;;;18.16;70.64;95375.06;4934300;29;20230;-77
2023/08/08 07:31:43;;;;;;;3.07;2.60;;;;;;;18.10;71.11;95376.03;4977517;28;20229;-77
2023/08/08 07:34:08;;;;;;;2.70;2.50;;;;;;;18.07;71.39;95376.50;4930392;28;20245;-76
2023/08/08 07:36:34;;;;;;;3.70;2.33;;;;;;;18.19;70.08;95377.25;4949484;28;20320;-76
2023/08/08 07:38:59;;;;;;;2.90;2.33;;;;;;;18.08;70.18;95370.94;4922403;29;20253;-75
2023/08/08 07:41:29;;;;;;;3.30;2.30;;;;;;;18.27;69.83;95378.75;4932124;29;20639;-76
2023/08/08 07:43:55;;;;;;;2.30;2.10;;;;;;;18.37;68.74;95378.91;4930296;29;20244;-76
2023/08/08 07:46:20;;;;;;;4.17;2.40;;;;;;;18.43;68.60;95383.28;4911259;28;20232;-75
2023/08/08 07:48:46;;;;;;;2.23;1.90;;;;;;;18.53;67.59;95378.22;4931185;28;20628;-75
2023/08/08 07:51:11;;;;;;;2.20;2.00;;;;;;;18.59;68.38;95385.19;4932625;28;20248;-75
2023/08/08 07:53:37;;;;;;;3.53;2.00;;;;;;;18.70;67.98;95393.09;4926055;28;20233;-75
2023/08/08 07:56:03;;;;;;;2.53;2.00;;;;;;;18.65;67.58;95376.31;4921158;28;20245;-75
2023/08/08 07:58:28;;;;;;;2.60;1.80;;;;;;;18.76;66.89;95368.28;4953065;28;20236;-76
2023/08/08 08:00:54;;;;;;;2.10;1.80;;;;;;;18.56;66.39;95396.28;4930792;29;20228;-76
2023/08/08 08:03:20;;;;;;;2.00;1.80;;;;;;;18.60;66.61;95389.47;4943029;28;20252;-75
2023/08/08 08:05:46;;;;;;;2.20;2.00;;;;;;;18.78;65.95;95378.66;4925450;28;20244;-77
2023/08/08 08:08:12;;;;;;;2.30;1.90;;;;;;;18.94;66.79;95377.09;4932987;29;20237;-75
2023/08/08 08:10:37;;;;;;;3.00;2.20;;;;;;;19.15;65.66;95377.19;4954873;28;20244;-74
2023/08/08 08:13:03;;;;;;;2.20;2.00;;;;;;;19.30;65.45;95374.75;4932641;29;20244;-78
2023/08/08 08:15:29;;;;;;;4.37;2.00;;;;;;;19.31;64.20;95370.25;4924192;28;20945;-76
2023/08/08 08:17:55;;;;;;;2.73;1.93;;;;;;;19.20;64.38;95377.22;4950175;28;20233;-76
2023/08/08 08:20:20;;;;;;;2.73;1.87;;;;;;;19.30;64.31;95368.63;4951273;28;20241;-76
2023/08/08 08:22:46;;;;;;;3.70;1.90;;;;;;;19.46;64.37;95375.81;4950763;28;20249;-78
2023/08/08 08:25:12;;;;;;;4.33;2.00;;;;;;;19.28;64.66;95368.06;4935103;29;20741;-76
2023/08/08 08:27:38;;;;;;;1.90;1.80;;;;;;;19.24;64.18;95377.56;4926521;29;21206;-77
2023/08/08 08:30:05;;;;;;;3.00;1.90;;;;;;;19.30;64.24;95381.88;4945726;28;20252;-78
2023/08/08 08:32:37;;;;;;;3.83;1.90;;;;;;;19.45;64.36;95376.84;4935549;29;20348;-76
2023/08/08 08:35:06;;;;;;;3.80;2.40;;;;;;;19.70;63.76;95376.44;4981614;28;20225;-73
2023/08/08 08:37:32;;;;;;;2.77;1.90;;;;;;;19.78;63.64;95370.66;4988052;28;20740;-77
2023/08/08 08:39:57;;;;;;;3.57;2.03;;;;;;;19.65;63.14;95381.66;4931327;28;20280;-74
2023/08/08 08:42:23;;;;;;;2.37;2.13;;;;;;;19.68;63.39;95376.66;4926559;29;20808;-69
2023/08/08 08:44:49;;;;;;;2.50;2.30;;;;;;;19.74;64.14;95377.53;4922902;29;20308;-70
2023/08/08 08:47:15;;;;;;;3.27;2.40;;;;;;;19.42;64.59;95374.69;4933164;29;20263;-70
2023/08/08 08:49:41;;;;;;;2.83;2.50;;;;;;;19.53;63.35;95363.19;4918018;29;20234;-71
2023/08/08 08:52:07;;;;;;;4.97;2.80;;;;;;;19.76;63.28;95370.94;4941565;28;20232;-69
2023/08/08 08:54:32;;;;;;;4.27;2.37;;;;;;;19.91;62.69;95371.13;4941619;28;20243;-69
2023/08/08 08:56:58;;;;;;;5.33;2.57;;;;;;;20.22;62.19;95371.50;4942759;28;20312;-67
2023/08/08 08:59:23;;;;;;;4.50;2.50;;;;;;;20.00;62.17;95376.81;4936441;29;20257;-70
2023/08/08 09:01:50;;;;;;;3.47;2.70;;;;;;;19.67;63.22;95388.34;4916381;28;20237;-70
2023/08/08 09:04:17;;;;;;;3.33;2.33;;;;;;;19.55;63.48;95382.31;4914202;29;20307;-70
2023/08/08 09:06:43;;;;;;;3.53;2.67;;;;;;;19.96;62.62;95379.19;4921339;28;21069;-70
2023/08/08 09:09:08;;;;;;;3.43;2.57;;;;;;;20.21;61.42;95373.34;4968007;28;20804;-72
2023/08/08 09:11:34;;;;;;;3.30;2.40;;;;;;;20.37;60.52;95379.69;5003693;28;20323;-70
2023/08/08 09:14:00;;;;;;;3.93;2.10;;;;;;;20.17;59.48;95373.06;4932354;29;20323;-70
2023/08/08 09:16:26;;;;;;;2.77;2.30;;;;;;;20.26;61.29;95369.97;4930398;28;20251;-71
2023/08/08 09:18:51;;;;;;;2.53;2.20;;;;;;;20.33;62.16;95367.94;4919288;29;20240;-69
2023/08/08 09:21:18;;;;;;;3.43;2.40;;;;;;;20.63;61.22;95369.09;4933029;29;20255;-68
2023/08/08 09:23:44;;;;;;;3.03;2.43;;;;;;;20.11;61.21;95367.91;4929478;29;20283;-70
2023/08/08 09:26:09;;;;;;;3.30;2.40;;;;;;;20.49;61.81;95364.41;4909276;29;20712;-70
2023/08/08 09:28:35;;;;;;;3.60;2.50;;;;;;;20.36;61.95;95370.91;4933665;29;20257;-69
2023/08/08 09:31:01;;;;;;;6.67;2.50;;;;;;;20.51;61.02;95376.41;4931756;28;20233;-71
2023/08/08 09:33:30;;;;;;;4.93;2.40;;;;;;;20.34;60.16;95382.84;4927439;28;20769;-71
2023/08/08 09:35:55;;;;;;;2.97;2.00;;;;;;;20.51;60.40;95381.72;4932457;29;20238;-69
2023/08/08 09:38:21;;;;;;;2.63;2.20;;;;;;;20.62;59.58;95382.63;4933924;29;20341;-69
2023/08/08 09:40:46;;;;;;;3.13;2.30;;;;;;;20.96;59.36;95378.72;4949794;28;20324;-71
2023/08/08 09:43:12;;;;;;;3.90;2.30;;;;;;;20.99;58.06;95370.22;4930289;29;20272;-72
2023/08/08 09:45:38;;;;;;;3.70;2.47;;;;;;;21.00;58.25;95379.81;4945728;28;20670;-70
2023/08/08 09:48:04;;;;;;;3.43;2.40;;;;;;;20.94;58.47;95380.81;4916921;29;20961;-69
2023/08/08 09:50:32;;;;;;;4.97;2.60;;;;;;;21.19;58.67;95378.41;4979298;28;20232;-71
2023/08/08 09:52:57;;;;;;;4.80;2.57;;;;;;;21.24;58.48;95383.78;4927604;28;20237;-70
2023/08/08 09:55:23;;;;;;;3.17;2.50;;;;;;;21.34;57.86;95385.72;4927673;29;21077;-71
2023/08/08 09:57:48;;;;;;;2.70;2.50;;;;;;;21.28;57.11;95378.75;4932541;28;20237;-70
2023/08/08 10:00:17;;;;;;;3.27;2.30;;;;;;;21.36;56.85;95379.06;4936225;29;20237;-69
2023/08/08 10:02:44;;;;;;;4.60;2.60;;;;;;;21.53;56.60;95384.25;4929856;28;20234;-70
2023/08/08 10:05:12;;;;;;;2.63;2.43;;;;;;;21.19;57.22;95383.72;4975838;28;20241;-70
2023/08/08 10:07:38;;;;;;;4.60;2.30;;;;;;;21.43;56.08;95386.84;4904729;28;20853;-69
2023/08/08 10:10:04;;;;;;;2.93;2.60;;;;;;;21.57;57.01;95380.00;4930543;29;20233;-70
2023/08/08 10:12:30;;;;;;;3.53;2.70;;;;;;;21.66;57.37;95369.69;4988461;28;20319;-77
2023/08/08 10:14:55;;;;;;;4.20;3.00;;;;;;;21.29;57.72;95380.34;4971237;28;20308;-76
2023/08/08 10:17:21;;;;;;;3.70;2.63;;;;;;;21.32;57.82;95378.00;4921121;28;20275;-75
2023/08/08 10:19:54;;;;;;;4.80;2.90;;;;;;;21.38;57.80;95366.31;4927521;29;20244;-75
2023/08/08 10:22:21;;;;;;;2.90;2.70;;;;;;;21.51;57.58;95369.59;4924026;29;20263;-74
2023/08/08 10:24:48;;;;;;;3.03;2.80;;;;;;;21.84;56.28;95377.25;5024621;28;20304;-76
2023/08/08 10:27:15;;;;;;;3.43;2.60;;;;;;;22.00;56.17;95379.78;4924407;29;20237;-75
2023/08/08 10:29:40;;;;;;;3.13;2.77;;;;;;;22.06;55.15;95377.94;4931497;28;20233;-76
2023/08/08 10:32:07;;;;;;;6.30;2.70;;;;;;;21.99;55.81;95378.19;4918682;28;20632;-75
2023/08/08 10:34:46;;;;;;;3.13;2.40;;;;;;;21.82;56.29;95377.53;4932003;29;20272;-77
2023/08/08 10:37:12;;;;;;;3.23;2.40;;;;;;;21.81;56.59;95369.75;4974692;28;20236;-76
2023/08/08 10:39:48;;;;;;;2.57;2.37;;;;;;;22.17;55.35;95368.91;4923200;28;20293;-76
2023/08/08 10:42:18;;;;;;;3.00;2.33;;;;;;;21.94;56.10;95359.50;4935479;29;20236;-76
2023/08/08 10:44:43;;;;;;;4.37;2.50;;;;;;;21.76;57.24;95351.88;4927093;29;20240;-75
2023/08/08 10:47:10;;;;;;;5.83;2.73;;;;;;;21.81;57.54;95351.91;4930183;29;20269;-75
2023/08/08 10:49:36;;;;;;;3.57;2.27;;;;;;;21.75;56.22;95352.16;4976613;28;20237;-75
2023/08/08 10:52:02;;;;;;;3.30;2.47;;;;;;;21.74;56.79;95353.19;4978081;28;21045;-78
2023/08/08 10:54:30;;;;;;;2.77;2.37;;;;;;;21.87;55.66;95355.44;4953019;28;20241;-75
2023/08/08 10:56:57;;;;;;;3.80;2.20;;;;;;;21.93;54.27;95355.22;4917629;29;20245;-76
2023/08/08 10:59:24;;;;;;;3.20;2.40;;;;;;;21.94;57.02;95359.50;4931344;28;20240;-75
2023/08/08 11:01:51;;;;;;;2.40;2.20;;;;;;;22.18;55.61;95354.53;4972415;28;20617;-75
2023/08/08 11:04:21;;;;;;;2.87;2.27;;;;;;;22.47;54.68;95357.56;4924327;28;21224;-76
2023/08/08 11:06:47;;;;;;;3.13;2.07;;;;;;;22.47;53.63;95347.69;4928580;28;20314;-76
2023/08/08 11:09:13;;;;;;;3.53;2.10;;;;;;;22.47;54.18;95346.88;4996798;28;20347;-76
2023/08/08 11:11:39;;;;;;;4.30;1.90;;;;;;;22.37;54.30;95354.84;4941782;28;20340;-74
2023/08/08 11:14:18;;;;;;;2.53;2.20;;;;;;;22.35;53.63;95354.31;4916914;29;20593;-77
2023/08/08 11:16:44;;;;;;;2.58;2.25;;;;;;;;;;4997489;28;20241;-73
2023/08/08 11:19:10;;;;;;;2.50;2.20;;;;;;;22.79;53.12;95352.84;4948272;28;20628;-76
2023/08/08 11:21:45;;;;;;;3.37;2.10;;;;;;;22.71;53.53;95354.16;5003017;28;20233;-76
2023/08/08 11:24:11;;;;;;;3.92;2.08;;;;;;;22.93;52.73;95345.13;4974770;28;20327;-76
2023/08/08 11:26:36;;;;;;;2.78;2.20;;;;;;;22.89;51.32;95338.72;4930330;28;20245;-76
2023/08/08 11:29:03;;;;;;;2.08;1.98;;;;;;;22.84;52.25;95336.84;4942093;28;20860;-76